sensor_id;sensor_type;location;lat;lon;timestamp;pressure;altitude;pressure_sealevel;temperature;humidity
16094;BME280;8151;47.824;12.092;2023-03-16T00:00:20;96699.66;;;4.33;71.12
16094;BME280;8151;47.824;12.092;2023-03-16T00:02:51;96698.94;;;4.31;71.53
16094;BME280;8151;47.824;12.092;2023-03-16T00:05:19;96706.09;;;4.29;71.19
16094;BME280;8151;47.824;12.092;2023-03-16T00:07:48;96700.16;;;4.27;71.27
16094;BME280;8151;47.824;12.092;2023-03-16T00:10:18;96693.00;;;4.29;71.62
16094;BME280;8151;47.824;12.092;2023-03-16T00:12:53;96698.34;;;4.27;71.26
16094;BME280;8151;47.824;12.092;2023-03-16T00:15:22;96698.25;;;4.29;71.24
16094;BME280;8151;47.824;12.092;2023-03-16T00:17:50;96705.25;;;4.28;71.56
16094;BME280;8151;47.824;12.092;2023-03-16T00:20:19;96699.19;;;4.28;71.66
16094;BME280;8151;47.824;12.092;2023-03-16T00:22:48;96704.19;;;4.31;71.42
16094;BME280;8151;47.824;12.092;2023-03-16T00:25:18;96698.56;;;4.36;71.53
16094;BME280;8151;47.824;12.092;2023-03-16T00:27:46;96704.53;;;4.38;71.86
16094;BME280;8151;47.824;12.092;2023-03-16T00:30:15;96698.22;;;4.40;71.83
16094;BME280;8151;47.824;12.092;2023-03-16T00:32:44;96691.31;;;4.39;71.75
16094;BME280;8151;47.824;12.092;2023-03-16T00:35:12;96684.41;;;4.38;71.38
16094;BME280;8151;47.824;12.092;2023-03-16T00:37:46;96685.94;;;4.41;71.81
16094;BME280;8151;47.824;12.092;2023-03-16T00:40:15;96682.50;;;4.40;71.46
16094;BME280;8151;47.824;12.092;2023-03-16T00:42:45;96679.63;;;4.43;71.62
16094;BME280;8151;47.824;12.092;2023-03-16T00:45:14;96683.06;;;4.44;71.65
16094;BME280;8151;47.824;12.092;2023-03-16T00:47:42;96680.44;;;4.44;71.87
16094;BME280;8151;47.824;12.092;2023-03-16T00:50:11;96686.06;;;4.39;71.98
16094;BME280;8151;47.824;12.092;2023-03-16T00:52:39;96687.03;;;4.38;71.84
16094;BME280;8151;47.824;12.092;2023-03-16T00:55:08;96687.28;;;4.35;72.09
16094;BME280;8151;47.824;12.092;2023-03-16T00:57:37;96682.41;;;4.30;72.42
16094;BME280;8151;47.824;12.092;2023-03-16T01:00:08;96680.59;;;4.31;72.12
16094;BME280;8151;47.824;12.092;2023-03-16T01:02:39;96684.53;;;4.37;71.94
16094;BME280;8151;47.824;12.092;2023-03-16T01:05:08;96682.75;;;4.37;71.89
16094;BME280;8151;47.824;12.092;2023-03-16T01:07:37;96690.59;;;4.37;72.16
16094;BME280;8151;47.824;12.092;2023-03-16T01:10:07;96687.03;;;4.38;72.07
16094;BME280;8151;47.824;12.092;2023-03-16T01:12:44;96682.50;;;4.40;71.98
16094;BME280;8151;47.824;12.092;2023-03-16T01:15:14;96684.28;;;4.40;72.08
16094;BME280;8151;47.824;12.092;2023-03-16T01:17:43;96678.31;;;4.38;72.26
16094;BME280;8151;47.824;12.092;2023-03-16T01:20:11;96683.22;;;4.42;72.41
16094;BME280;8151;47.824;12.092;2023-03-16T01:22:45;96682.00;;;4.46;72.41
16094;BME280;8151;47.824;12.092;2023-03-16T01:25:13;96672.34;;;4.47;71.91
16094;BME280;8151;47.824;12.092;2023-03-16T01:27:42;96676.78;;;4.46;72.00
16094;BME280;8151;47.824;12.092;2023-03-16T01:30:11;96675.69;;;4.49;72.28
16094;BME280;8151;47.824;12.092;2023-03-16T01:32:41;96675.69;;;4.49;71.97
16094;BME280;8151;47.824;12.092;2023-03-16T01:35:09;96678.41;;;4.47;71.97
16094;BME280;8151;47.824;12.092;2023-03-16T01:37:38;96674.16;;;4.46;72.47
16094;BME280;8151;47.824;12.092;2023-03-16T01:40:08;96670.56;;;4.47;72.50
16094;BME280;8151;47.824;12.092;2023-03-16T01:42:46;96660.66;;;4.51;72.49
16094;BME280;8151;47.824;12.092;2023-03-16T01:45:57;96659.84;;;4.50;72.58
16094;BME280;8151;47.824;12.092;2023-03-16T01:48:40;96661.88;;;4.47;72.20
16094;BME280;8151;47.824;12.092;2023-03-16T01:51:13;96661.28;;;4.43;72.32
16094;BME280;8151;47.824;12.092;2023-03-16T01:53:44;96653.81;;;4.39;72.42
16094;BME280;8151;47.824;12.092;2023-03-16T01:56:17;96650.72;;;4.33;72.52
16094;BME280;8151;47.824;12.092;2023-03-16T01:58:51;96646.56;;;4.31;72.80
16094;BME280;8151;47.824;12.092;2023-03-16T02:01:25;96643.34;;;4.27;72.41
16094;BME280;8151;47.824;12.092;2023-03-16T02:04:01;96647.06;;;4.25;72.91
16094;BME280;8151;47.824;12.092;2023-03-16T02:06:33;96641.34;;;4.20;72.82
16094;BME280;8151;47.824;12.092;2023-03-16T02:09:03;96638.84;;;4.18;72.92
16094;BME280;8151;47.824;12.092;2023-03-16T02:11:32;96634.41;;;4.19;72.92
16094;BME280;8151;47.824;12.092;2023-03-16T02:14:07;96637.31;;;4.16;73.11
16094;BME280;8151;47.824;12.092;2023-03-16T02:16:36;96633.38;;;4.10;73.26
16094;BME280;8151;47.824;12.092;2023-03-16T02:19:10;96633.59;;;4.07;73.15
16094;BME280;8151;47.824;12.092;2023-03-16T02:21:46;96632.06;;;4.04;73.93
16094;BME280;8151;47.824;12.092;2023-03-16T02:24:20;96632.44;;;4.00;73.45
16094;BME280;8151;47.824;12.092;2023-03-16T02:26:52;96644.69;;;3.99;73.62
16094;BME280;8151;47.824;12.092;2023-03-16T02:32:05;96639.94;;;4.04;73.50
16094;BME280;8151;47.824;12.092;2023-03-16T02:34:34;96630.66;;;4.00;73.52
16094;BME280;8151;47.824;12.092;2023-03-16T02:37:03;96638.00;;;4.06;73.52
16094;BME280;8151;47.824;12.092;2023-03-16T02:39:32;96634.31;;;4.09;73.87
16094;BME280;8151;47.824;12.092;2023-03-16T02:42:01;96636.81;;;4.10;73.42
16094;BME280;8151;47.824;12.092;2023-03-16T02:44:32;96647.28;;;4.10;73.79
16094;BME280;8151;47.824;12.092;2023-03-16T02:47:03;96642.88;;;4.11;73.57
16094;BME280;8151;47.824;12.092;2023-03-16T02:49:37;96653.34;;;4.11;73.35
16094;BME280;8151;47.824;12.092;2023-03-16T02:52:07;96648.25;;;4.09;73.40
16094;BME280;8151;47.824;12.092;2023-03-16T02:54:35;96651.00;;;4.08;73.69
16094;BME280;8151;47.824;12.092;2023-03-16T02:57:04;96654.56;;;4.07;73.52
16094;BME280;8151;47.824;12.092;2023-03-16T02:59:35;96652.19;;;4.04;73.85
16094;BME280;8151;47.824;12.092;2023-03-16T03:02:03;96654.81;;;4.04;73.62
16094;BME280;8151;47.824;12.092;2023-03-16T03:04:33;96656.59;;;4.03;73.56
16094;BME280;8151;47.824;12.092;2023-03-16T03:07:01;96645.28;;;4.03;73.66
16094;BME280;8151;47.824;12.092;2023-03-16T03:09:31;96654.00;;;4.03;73.61
16094;BME280;8151;47.824;12.092;2023-03-16T03:12:00;96658.38;;;4.03;73.70
16094;BME280;8151;47.824;12.092;2023-03-16T03:14:28;96650.41;;;4.04;73.92
16094;BME280;8151;47.824;12.092;2023-03-16T03:17:01;96666.34;;;4.01;73.86
16094;BME280;8151;47.824;12.092;2023-03-16T03:19:30;96659.56;;;3.99;73.74
16094;BME280;8151;47.824;12.092;2023-03-16T03:22:02;96658.75;;;3.98;74.03
16094;BME280;8151;47.824;12.092;2023-03-16T03:24:33;96647.66;;;3.94;74.03
16094;BME280;8151;47.824;12.092;2023-03-16T03:27:01;96646.97;;;3.92;73.82
16094;BME280;8151;47.824;12.092;2023-03-16T03:29:32;96642.66;;;3.91;74.08
16094;BME280;8151;47.824;12.092;2023-03-16T03:32:02;96648.16;;;3.88;73.90
16094;BME280;8151;47.824;12.092;2023-03-16T03:34:31;96645.53;;;3.88;73.70
16094;BME280;8151;47.824;12.092;2023-03-16T03:37:01;96644.72;;;3.88;74.34
16094;BME280;8151;47.824;12.092;2023-03-16T03:39:30;96648.38;;;3.85;74.05
16094;BME280;8151;47.824;12.092;2023-03-16T03:41:58;96646.63;;;3.86;74.08
16094;BME280;8151;47.824;12.092;2023-03-16T03:44:29;96644.13;;;3.84;73.90
16094;BME280;8151;47.824;12.092;2023-03-16T03:47:01;96651.59;;;3.78;74.24
16094;BME280;8151;47.824;12.092;2023-03-16T03:49:30;96649.13;;;3.65;74.12
16094;BME280;8151;47.824;12.092;2023-03-16T03:51:58;96648.72;;;3.58;74.38
16094;BME280;8151;47.824;12.092;2023-03-16T03:54:32;96654.06;;;3.57;74.25
16094;BME280;8151;47.824;12.092;2023-03-16T03:57:00;96647.09;;;3.57;74.34
16094;BME280;8151;47.824;12.092;2023-03-16T03:59:30;96646.38;;;3.55;74.11
16094;BME280;8151;47.824;12.092;2023-03-16T04:01:58;96650.88;;;3.53;74.46
16094;BME280;8151;47.824;12.092;2023-03-16T04:04:27;96651.09;;;3.50;74.36
16094;BME280;8151;47.824;12.092;2023-03-16T04:06:55;96655.53;;;3.49;74.22
16094;BME280;8151;47.824;12.092;2023-03-16T04:09:24;96653.22;;;3.45;74.42
16094;BME280;8151;47.824;12.092;2023-03-16T04:11:53;96644.06;;;3.39;74.61
16094;BME280;8151;47.824;12.092;2023-03-16T04:14:23;96640.75;;;3.37;74.68
16094;BME280;8151;47.824;12.092;2023-03-16T04:16:52;96645.03;;;3.38;74.42
16094;BME280;8151;47.824;12.092;2023-03-16T04:19:21;96637.91;;;3.40;74.23
16094;BME280;8151;47.824;12.092;2023-03-16T04:21:50;96639.81;;;3.38;74.27
16094;BME280;8151;47.824;12.092;2023-03-16T04:24:19;96636.59;;;3.34;74.45
16094;BME280;8151;47.824;12.092;2023-03-16T04:26:48;96635.66;;;3.35;74.57
16094;BME280;8151;47.824;12.092;2023-03-16T04:29:18;96634.47;;;3.40;74.27
16094;BME280;8151;47.824;12.092;2023-03-16T04:31:47;96639.69;;;3.40;74.12
16094;BME280;8151;47.824;12.092;2023-03-16T04:34:15;96641.81;;;3.34;74.08
16094;BME280;8151;47.824;12.092;2023-03-16T04:36:43;96638.59;;;3.31;74.23
16094;BME280;8151;47.824;12.092;2023-03-16T04:39:12;96642.88;;;3.32;74.26
16094;BME280;8151;47.824;12.092;2023-03-16T04:41:40;96638.97;;;3.26;73.94
16094;BME280;8151;47.824;12.092;2023-03-16T04:44:09;96636.56;;;3.23;74.31
16094;BME280;8151;47.824;12.092;2023-03-16T04:46:38;96628.97;;;3.20;74.32
16094;BME280;8151;47.824;12.092;2023-03-16T04:49:07;96627.28;;;3.19;74.33
16094;BME280;8151;47.824;12.092;2023-03-16T04:51:36;96636.31;;;3.15;73.99
16094;BME280;8151;47.824;12.092;2023-03-16T04:54:07;96637.59;;;3.09;74.23
16094;BME280;8151;47.824;12.092;2023-03-16T04:56:35;96649.13;;;3.07;74.19
16094;BME280;8151;47.824;12.092;2023-03-16T04:59:07;96653.41;;;3.08;74.50
16094;BME280;8151;47.824;12.092;2023-03-16T05:01:36;96650.69;;;3.09;74.20
16094;BME280;8151;47.824;12.092;2023-03-16T05:04:06;96652.69;;;3.06;74.10
16094;BME280;8151;47.824;12.092;2023-03-16T05:06:39;96657.09;;;3.05;74.27
16094;BME280;8151;47.824;12.092;2023-03-16T05:09:07;96646.72;;;3.04;74.46
16094;BME280;8151;47.824;12.092;2023-03-16T05:11:36;96645.81;;;3.05;74.25
16094;BME280;8151;47.824;12.092;2023-03-16T05:14:05;96636.53;;;3.01;74.28
16094;BME280;8151;47.824;12.092;2023-03-16T05:16:33;96641.03;;;2.99;74.23
16094;BME280;8151;47.824;12.092;2023-03-16T05:19:01;96635.06;;;2.96;74.39
16094;BME280;8151;47.824;12.092;2023-03-16T05:21:31;96639.34;;;2.98;74.24
16094;BME280;8151;47.824;12.092;2023-03-16T05:24:00;96634.13;;;2.98;74.29
16094;BME280;8151;47.824;12.092;2023-03-16T05:26:28;96634.94;;;2.98;74.30
16094;BME280;8151;47.824;12.092;2023-03-16T05:28:57;96638.03;;;2.92;74.18
16094;BME280;8151;47.824;12.092;2023-03-16T05:31:25;96641.34;;;2.94;74.41
16094;BME280;8151;47.824;12.092;2023-03-16T05:33:58;96637.69;;;2.96;74.55
16094;BME280;8151;47.824;12.092;2023-03-16T05:36:28;96639.13;;;3.01;74.31
16094;BME280;8151;47.824;12.092;2023-03-16T05:38:58;96633.66;;;3.04;74.14
16094;BME280;8151;47.824;12.092;2023-03-16T05:41:27;96636.06;;;3.07;74.15
16094;BME280;8151;47.824;12.092;2023-03-16T05:43:56;96629.97;;;3.06;74.27
16094;BME280;8151;47.824;12.092;2023-03-16T05:46:24;96627.25;;;3.08;74.20
16094;BME280;8151;47.824;12.092;2023-03-16T05:48:53;96633.09;;;3.11;74.14
16094;BME280;8151;47.824;12.092;2023-03-16T05:51:21;96641.53;;;3.15;74.14
16094;BME280;8151;47.824;12.092;2023-03-16T05:53:52;96634.41;;;3.17;74.06
16094;BME280;8151;47.824;12.092;2023-03-16T05:56:25;96622.06;;;3.19;74.06
16094;BME280;8151;47.824;12.092;2023-03-16T05:58:54;96623.75;;;3.20;74.03
16094;BME280;8151;47.824;12.092;2023-03-16T06:01:23;96626.09;;;3.23;73.70
16094;BME280;8151;47.824;12.092;2023-03-16T06:03:51;96630.41;;;3.24;73.98
16094;BME280;8151;47.824;12.092;2023-03-16T06:06:21;96629.44;;;3.25;74.07
16094;BME280;8151;47.824;12.092;2023-03-16T06:08:49;96623.16;;;3.28;74.20
16094;BME280;8151;47.824;12.092;2023-03-16T06:11:18;96628.50;;;3.26;74.04
16094;BME280;8151;47.824;12.092;2023-03-16T06:13:48;96625.88;;;3.26;73.92
16094;BME280;8151;47.824;12.092;2023-03-16T06:16:16;96626.81;;;3.25;74.17
16094;BME280;8151;47.824;12.092;2023-03-16T06:18:45;96625.88;;;3.26;74.53
16094;BME280;8151;47.824;12.092;2023-03-16T06:21:13;96627.66;;;3.26;74.23
16094;BME280;8151;47.824;12.092;2023-03-16T06:23:42;96623.25;;;3.26;74.22
16094;BME280;8151;47.824;12.092;2023-03-16T06:26:10;96615.41;;;3.26;74.12
16094;BME280;8151;47.824;12.092;2023-03-16T06:28:39;96621.47;;;3.27;74.16
16094;BME280;8151;47.824;12.092;2023-03-16T06:31:09;96618.84;;;3.27;74.09
16094;BME280;8151;47.824;12.092;2023-03-16T06:33:38;96634.06;;;3.33;74.21
16094;BME280;8151;47.824;12.092;2023-03-16T06:36:07;96631.25;;;3.36;74.25
16094;BME280;8151;47.824;12.092;2023-03-16T06:38:36;96626.47;;;3.41;74.42
16094;BME280;8151;47.824;12.092;2023-03-16T06:41:04;96632.19;;;3.46;74.08
16094;BME280;8151;47.824;12.092;2023-03-16T06:43:33;96626.38;;;3.43;74.36
16094;BME280;8151;47.824;12.092;2023-03-16T06:46:01;96626.25;;;3.44;74.14
16094;BME280;8151;47.824;12.092;2023-03-16T06:48:31;96624.59;;;3.43;74.27
16094;BME280;8151;47.824;12.092;2023-03-16T06:51:00;96628.88;;;3.44;74.28
16094;BME280;8151;47.824;12.092;2023-03-16T06:53:28;96623.41;;;3.47;74.32
16094;BME280;8151;47.824;12.092;2023-03-16T06:55:57;96625.88;;;3.49;74.39
16094;BME280;8151;47.824;12.092;2023-03-16T06:58:25;96628.50;;;3.49;74.06
16094;BME280;8151;47.824;12.092;2023-03-16T07:00:54;96625.66;;;3.52;74.10
16094;BME280;8151;47.824;12.092;2023-03-16T07:03:22;96630.69;;;3.55;74.05
16094;BME280;8151;47.824;12.092;2023-03-16T07:05:52;96630.19;;;3.61;74.22
16094;BME280;8151;47.824;12.092;2023-03-16T07:08:21;96631.50;;;3.67;74.07
16094;BME280;8151;47.824;12.092;2023-03-16T07:10:49;96635.78;;;3.68;74.27
16094;BME280;8151;47.824;12.092;2023-03-16T07:13:18;96639.09;;;3.70;73.81
16094;BME280;8151;47.824;12.092;2023-03-16T07:15:49;96639.00;;;3.71;74.11
16094;BME280;8151;47.824;12.092;2023-03-16T07:18:18;96627.44;;;3.74;73.86
16094;BME280;8151;47.824;12.092;2023-03-16T07:20:47;96633.28;;;3.78;74.17
16094;BME280;8151;47.824;12.092;2023-03-16T07:23:17;96636.25;;;3.84;74.26
16094;BME280;8151;47.824;12.092;2023-03-16T07:25:45;96633.88;;;3.92;74.14
16094;BME280;8151;47.824;12.092;2023-03-16T07:28:14;96634.91;;;4.01;74.28
16094;BME280;8151;47.824;12.092;2023-03-16T07:30:43;96629.94;;;4.09;74.38
16094;BME280;8151;47.824;12.092;2023-03-16T07:33:30;96633.72;;;4.17;73.87
16094;BME280;8151;47.824;12.092;2023-03-16T07:35:59;96627.31;;;4.21;74.05
16094;BME280;8151;47.824;12.092;2023-03-16T07:38:32;96626.09;;;4.25;74.27
16094;BME280;8151;47.824;12.092;2023-03-16T07:41:00;96626.09;;;4.25;74.10
16094;BME280;8151;47.824;12.092;2023-03-16T07:43:29;96628.56;;;4.26;74.59
16094;BME280;8151;47.824;12.092;2023-03-16T07:45:57;96628.09;;;4.32;74.29
16094;BME280;8151;47.824;12.092;2023-03-16T07:48:26;96623.78;;;4.43;74.04
16094;BME280;8151;47.824;12.092;2023-03-16T07:50:55;96629.09;;;4.52;74.52
16094;BME280;8151;47.824;12.092;2023-03-16T07:53:23;96623.84;;;4.64;74.36
16094;BME280;8151;47.824;12.092;2023-03-16T07:55:53;96625.44;;;4.76;74.14
16094;BME280;8151;47.824;12.092;2023-03-16T07:58:21;96627.78;;;4.90;73.56
16094;BME280;8151;47.824;12.092;2023-03-16T08:00:50;96631.72;;;5.06;74.11
16094;BME280;8151;47.824;12.092;2023-03-16T08:03:18;96635.16;;;5.18;73.65
16094;BME280;8151;47.824;12.092;2023-03-16T08:05:46;96639.88;;;5.24;73.22
16094;BME280;8151;47.824;12.092;2023-03-16T08:08:15;96640.59;;;5.26;73.87
16094;BME280;8151;47.824;12.092;2023-03-16T08:10:46;96639.25;;;5.31;73.84
16094;BME280;8151;47.824;12.092;2023-03-16T08:13:16;96638.59;;;5.39;73.62
16094;BME280;8151;47.824;12.092;2023-03-16T08:15:46;96645.94;;;5.45;73.80
16094;BME280;8151;47.824;12.092;2023-03-16T08:18:14;96644.84;;;5.48;73.50
16094;BME280;8151;47.824;12.092;2023-03-16T08:20:43;96651.91;;;5.47;73.87
16094;BME280;8151;47.824;12.092;2023-03-16T08:23:11;96638.19;;;5.44;73.63
16094;BME280;8151;47.824;12.092;2023-03-16T08:25:42;96645.38;;;5.42;74.15
16094;BME280;8151;47.824;12.092;2023-03-16T08:28:10;96648.25;;;5.39;74.21
16094;BME280;8151;47.824;12.092;2023-03-16T08:30:45;96648.41;;;5.37;74.29
16094;BME280;8151;47.824;12.092;2023-03-16T08:33:14;96644.66;;;5.40;73.99
16094;BME280;8151;47.824;12.092;2023-03-16T08:35:44;96641.06;;;5.41;73.86
16094;BME280;8151;47.824;12.092;2023-03-16T08:38:13;96647.28;;;5.40;74.02
16094;BME280;8151;47.824;12.092;2023-03-16T08:40:43;96653.25;;;5.42;74.23
16094;BME280;8151;47.824;12.092;2023-03-16T08:43:15;96652.16;;;5.44;74.59
16094;BME280;8151;47.824;12.092;2023-03-16T08:45:45;96651.78;;;5.49;74.26
16094;BME280;8151;47.824;12.092;2023-03-16T08:48:14;96652.19;;;5.54;74.54
16094;BME280;8151;47.824;12.092;2023-03-16T08:50:43;96648.81;;;5.63;73.78
16094;BME280;8151;47.824;12.092;2023-03-16T08:53:13;96648.72;;;5.75;73.90
16094;BME280;8151;47.824;12.092;2023-03-16T08:55:41;96655.63;;;5.76;73.89
16094;BME280;8151;47.824;12.092;2023-03-16T08:58:10;96648.31;;;5.79;74.19
16094;BME280;8151;47.824;12.092;2023-03-16T09:00:40;96649.13;;;5.70;74.05
16094;BME280;8151;47.824;12.092;2023-03-16T09:03:12;96653.09;;;5.64;74.18
16094;BME280;8151;47.824;12.092;2023-03-16T09:05:41;96653.34;;;5.61;74.22
16094;BME280;8151;47.824;12.092;2023-03-16T09:08:09;96647.66;;;5.56;74.88
16094;BME280;8151;47.824;12.092;2023-03-16T09:10:38;96654.66;;;5.46;74.76
16094;BME280;8151;47.824;12.092;2023-03-16T09:13:07;96645.44;;;5.30;74.79
16094;BME280;8151;47.824;12.092;2023-03-16T09:15:36;96649.97;;;5.28;74.83
16094;BME280;8151;47.824;12.092;2023-03-16T09:18:05;96648.63;;;5.34;74.98
16094;BME280;8151;47.824;12.092;2023-03-16T09:20:34;96642.88;;;5.40;74.72
16094;BME280;8151;47.824;12.092;2023-03-16T09:23:04;96643.03;;;5.48;74.63
16094;BME280;8151;47.824;12.092;2023-03-16T09:25:32;96638.31;;;5.63;74.12
16094;BME280;8151;47.824;12.092;2023-03-16T09:28:00;96641.50;;;5.67;74.40
16094;BME280;8151;47.824;12.092;2023-03-16T09:30:29;96644.91;;;5.88;74.03
16094;BME280;8151;47.824;12.092;2023-03-16T09:32:58;96641.72;;;6.16;74.02
16094;BME280;8151;47.824;12.092;2023-03-16T09:35:27;96637.63;;;6.42;73.78
16094;BME280;8151;47.824;12.092;2023-03-16T09:37:57;96633.34;;;6.61;73.20
16094;BME280;8151;47.824;12.092;2023-03-16T09:40:35;96633.53;;;6.79;73.37
16094;BME280;8151;47.824;12.092;2023-03-16T09:43:22;96634.34;;;6.89;73.21
16094;BME280;8151;47.824;12.092;2023-03-16T09:46:00;96627.41;;;6.88;73.40
16094;BME280;8151;47.824;12.092;2023-03-16T09:48:33;96626.03;;;6.84;74.04
16094;BME280;8151;47.824;12.092;2023-03-16T09:51:05;96626.47;;;6.99;74.08
16094;BME280;8151;47.824;12.092;2023-03-16T09:53:37;96623.81;;;7.18;74.04
16094;BME280;8151;47.824;12.092;2023-03-16T09:56:09;96628.78;;;7.31;73.74
16094;BME280;8151;47.824;12.092;2023-03-16T09:58:39;96625.00;;;7.43;73.67
16094;BME280;8151;47.824;12.092;2023-03-16T10:01:12;96620.00;;;7.50;73.54
16094;BME280;8151;47.824;12.092;2023-03-16T10:03:58;96634.41;;;7.56;73.58
16094;BME280;8151;47.824;12.092;2023-03-16T10:06:29;96624.38;;;7.69;73.54
16094;BME280;8151;47.824;12.092;2023-03-16T10:09:23;96618.81;;;7.82;73.37
16094;BME280;8151;47.824;12.092;2023-03-16T10:11:56;96620.94;;;7.96;72.82
16094;BME280;8151;47.824;12.092;2023-03-16T10:14:29;96610.81;;;8.01;72.70
16094;BME280;8151;47.824;12.092;2023-03-16T10:17:04;96611.16;;;8.16;72.43
16094;BME280;8151;47.824;12.092;2023-03-16T10:19:37;96608.97;;;8.29;72.24
16094;BME280;8151;47.824;12.092;2023-03-16T10:22:16;96607.03;;;8.41;71.72
16094;BME280;8151;47.824;12.092;2023-03-16T10:24:56;96599.63;;;8.45;71.22
16094;BME280;8151;47.824;12.092;2023-03-16T10:27:29;96600.56;;;8.54;71.62
16094;BME280;8151;47.824;12.092;2023-03-16T10:29:58;96610.56;;;8.68;71.29
16094;BME280;8151;47.824;12.092;2023-03-16T10:32:31;96606.06;;;8.78;71.23
16094;BME280;8151;47.824;12.092;2023-03-16T10:35:03;96608.63;;;8.88;70.76
16094;BME280;8151;47.824;12.092;2023-03-16T10:37:34;96601.97;;;9.02;71.02
16094;BME280;8151;47.824;12.092;2023-03-16T10:40:09;96598.44;;;9.11;70.54
16094;BME280;8151;47.824;12.092;2023-03-16T10:42:38;96597.13;;;9.15;70.99
16094;BME280;8151;47.824;12.092;2023-03-16T10:45:19;96594.94;;;9.29;69.79
16094;BME280;8151;47.824;12.092;2023-03-16T10:47:50;96590.22;;;9.40;69.82
16094;BME280;8151;47.824;12.092;2023-03-16T10:50:22;96591.91;;;9.50;70.14
16094;BME280;8151;47.824;12.092;2023-03-16T10:52:53;96587.50;;;9.58;69.57
16094;BME280;8151;47.824;12.092;2023-03-16T10:55:29;96584.59;;;9.70;69.74
16094;BME280;8151;47.824;12.092;2023-03-16T10:57:58;96586.06;;;9.64;69.71
16094;BME280;8151;47.824;12.092;2023-03-16T11:00:33;96588.84;;;9.62;69.30
16094;BME280;8151;47.824;12.092;2023-03-16T11:03:19;96583.28;;;9.65;68.54
16094;BME280;8151;47.824;12.092;2023-03-16T11:05:56;96568.28;;;9.74;68.54
16094;BME280;8151;47.824;12.092;2023-03-16T11:08:25;96569.81;;;9.85;68.19
16094;BME280;8151;47.824;12.092;2023-03-16T11:10:57;96565.75;;;9.99;67.99
16094;BME280;8151;47.824;12.092;2023-03-16T11:13:32;96564.31;;;10.13;67.35
16094;BME280;8151;47.824;12.092;2023-03-16T11:16:05;96556.53;;;10.19;67.31
16094;BME280;8151;47.824;12.092;2023-03-16T11:18:43;96553.06;;;10.19;67.12
16094;BME280;8151;47.824;12.092;2023-03-16T11:21:15;96545.81;;;10.21;66.85
16094;BME280;8151;47.824;12.092;2023-03-16T11:23:47;96549.16;;;10.31;67.09
16094;BME280;8151;47.824;12.092;2023-03-16T11:26:22;96542.09;;;10.40;66.54
16094;BME280;8151;47.824;12.092;2023-03-16T11:28:59;96538.63;;;10.48;66.46
16094;BME280;8151;47.824;12.092;2023-03-16T11:31:39;96529.72;;;10.57;66.55
16094;BME280;8151;47.824;12.092;2023-03-16T11:34:13;96533.19;;;10.66;65.96
16094;BME280;8151;47.824;12.092;2023-03-16T11:36:49;96527.06;;;10.73;66.17
16094;BME280;8151;47.824;12.092;2023-03-16T11:39:29;96515.50;;;10.82;65.39
16094;BME280;8151;47.824;12.092;2023-03-16T11:42:13;96511.34;;;10.88;65.22
16094;BME280;8151;47.824;12.092;2023-03-16T11:44:51;96502.22;;;10.99;65.11
16094;BME280;8151;47.824;12.092;2023-03-16T11:47:31;96502.25;;;11.07;64.53
16094;BME280;8151;47.824;12.092;2023-03-16T11:50:09;96501.72;;;11.12;65.01
16094;BME280;8151;47.824;12.092;2023-03-16T11:52:49;96502.53;;;11.20;64.32
16094;BME280;8151;47.824;12.092;2023-03-16T11:55:31;96491.94;;;11.29;64.64
16094;BME280;8151;47.824;12.092;2023-03-16T11:58:22;96489.59;;;11.34;64.26
16094;BME280;8151;47.824;12.092;2023-03-16T12:01:00;96485.59;;;11.38;64.41
16094;BME280;8151;47.824;12.092;2023-03-16T12:03:43;96481.94;;;11.47;64.10
16094;BME280;8151;47.824;12.092;2023-03-16T12:06:22;96481.25;;;11.53;64.02
16094;BME280;8151;47.824;12.092;2023-03-16T12:09:06;96474.44;;;11.59;63.89
16094;BME280;8151;47.824;12.092;2023-03-16T12:11:41;96469.78;;;11.61;63.96
16094;BME280;8151;47.824;12.092;2023-03-16T12:14:19;96459.03;;;11.62;63.61
16094;BME280;8151;47.824;12.092;2023-03-16T12:16:54;96461.19;;;11.67;63.26
16094;BME280;8151;47.824;12.092;2023-03-16T12:19:36;96447.06;;;11.75;63.05
16094;BME280;8151;47.824;12.092;2023-03-16T12:22:14;96444.84;;;11.87;63.03
16094;BME280;8151;47.824;12.092;2023-03-16T12:24:45;96457.38;;;12.01;62.75
16094;BME280;8151;47.824;12.092;2023-03-16T12:27:16;96443.22;;;12.09;62.17
16094;BME280;8151;47.824;12.092;2023-03-16T12:29:57;96442.91;;;12.12;61.52
16094;BME280;8151;47.824;12.092;2023-03-16T12:32:37;96440.00;;;12.21;61.79
16094;BME280;8151;47.824;12.092;2023-03-16T12:35:23;96429.81;;;12.33;61.13
16094;BME280;8151;47.824;12.092;2023-03-16T12:38:05;96427.91;;;12.42;61.49
16094;BME280;8151;47.824;12.092;2023-03-16T12:40:42;96419.44;;;12.47;61.23
16094;BME280;8151;47.824;12.092;2023-03-16T12:43:26;96417.59;;;12.47;61.12
16094;BME280;8151;47.824;12.092;2023-03-16T12:46:05;96412.09;;;12.49;61.06
16094;BME280;8151;47.824;12.092;2023-03-16T12:48:37;96406.44;;;12.52;61.16
16094;BME280;8151;47.824;12.092;2023-03-16T12:51:08;96414.69;;;12.57;60.87
16094;BME280;8151;47.824;12.092;2023-03-16T12:53:42;96410.84;;;12.59;60.32
16094;BME280;8151;47.824;12.092;2023-03-16T12:56:12;96409.13;;;12.67;60.38
16094;BME280;8151;47.824;12.092;2023-03-16T12:58:44;96408.41;;;12.73;60.19
16094;BME280;8151;47.824;12.092;2023-03-16T13:01:17;96407.59;;;12.72;59.81
16094;BME280;8151;47.824;12.092;2023-03-16T13:03:49;96402.53;;;12.77;59.75
16094;BME280;8151;47.824;12.092;2023-03-16T13:06:31;96408.13;;;12.83;59.21
16094;BME280;8151;47.824;12.092;2023-03-16T13:09:04;96401.75;;;12.92;58.96
16094;BME280;8151;47.824;12.092;2023-03-16T13:11:41;96396.06;;;12.95;57.98
16094;BME280;8151;47.824;12.092;2023-03-16T13:14:16;96402.69;;;12.99;58.71
16094;BME280;8151;47.824;12.092;2023-03-16T13:16:50;96403.09;;;13.03;58.46
16094;BME280;8151;47.824;12.092;2023-03-16T13:19:24;96396.63;;;13.05;58.08
16094;BME280;8151;47.824;12.092;2023-03-16T13:22:02;96394.22;;;13.10;57.73
16094;BME280;8151;47.824;12.092;2023-03-16T13:24:43;96391.22;;;13.13;57.57
16094;BME280;8151;47.824;12.092;2023-03-16T13:27:20;96391.75;;;13.24;57.49
16094;BME280;8151;47.824;12.092;2023-03-16T13:29:55;96388.75;;;13.27;57.50
16094;BME280;8151;47.824;12.092;2023-03-16T13:32:30;96393.94;;;13.20;57.28
16094;BME280;8151;47.824;12.092;2023-03-16T13:35:00;96383.97;;;13.22;57.09